Time;durP1;ratioP1;P1;durP2;ratioP2;P2;SDS_P1;SDS_P2;PMS_P1;PMS_P2;Temp;Humidity;BMP_temperature;BMP_pressure;BME280_temperature;BME280_humidity;BME280_pressure;Samples;Min_cycle;Max_cycle;Signal;HPM_P1;HPM_P2
2023/07/25 00:00:45;;;;;;;7.78;2.65;;;13.60;99.90;;;;;;5082565;28;20034;-74
2023/07/25 00:03:11;;;;;;;9.90;2.80;;;13.60;99.90;;;;;;5075997;28;20090;-74
2023/07/25 00:05:36;;;;;;;13.05;3.33;;;13.50;99.90;;;;;;5081720;28;20044;-74
2023/07/25 00:08:03;;;;;;;10.25;2.60;;;13.50;99.90;;;;;;5074305;28;20478;-74
2023/07/25 00:10:28;;;;;;;8.70;2.97;;;13.50;99.90;;;;;;5078983;28;20040;-74
2023/07/25 00:12:55;;;;;;;10.75;2.40;;;13.40;99.90;;;;;;5084189;28;20051;-73
2023/07/25 00:15:21;;;;;;;8.57;2.90;;;13.40;99.90;;;;;;5080258;28;20404;-73
2023/07/25 00:17:47;;;;;;;11.93;2.83;;;13.40;99.90;;;;;;5082031;28;20513;-74
2023/07/25 00:20:13;;;;;;;10.60;3.47;;;13.30;99.90;;;;;;5082992;28;20044;-74
2023/07/25 00:22:38;;;;;;;9.70;3.35;;;13.30;99.90;;;;;;5079266;28;20189;-74
2023/07/25 00:25:05;;;;;;;13.35;3.58;;;13.30;99.90;;;;;;5076035;28;20082;-73
2023/07/25 00:27:30;;;;;;;12.45;2.97;;;13.30;99.90;;;;;;5077988;28;20036;-73
2023/07/25 00:29:56;;;;;;;8.50;2.85;;;13.30;99.90;;;;;;5084430;28;20567;-73
2023/07/25 00:32:22;;;;;;;8.13;2.90;;;13.30;99.90;;;;;;5078820;28;20044;-73
2023/07/25 00:34:50;;;;;;;10.57;2.65;;;13.30;99.90;;;;;;5072550;28;20072;-73
2023/07/25 00:37:16;;;;;;;8.75;2.50;;;13.20;99.90;;;;;;5063355;28;20052;-73
2023/07/25 00:39:42;;;;;;;10.73;2.60;;;13.20;99.90;;;;;;5085606;28;20790;-73
2023/07/25 00:42:07;;;;;;;8.30;2.55;;;13.20;99.90;;;;;;5083955;28;20055;-74
2023/07/25 00:44:33;;;;;;;10.88;3.10;;;13.20;99.90;;;;;;5077650;28;20078;-73
2023/07/25 00:46:59;;;;;;;10.07;3.28;;;13.20;99.90;;;;;;5076483;28;20040;-73
2023/07/25 00:49:25;;;;;;;7.80;2.97;;;13.20;99.90;;;;;;5076847;28;20097;-73
2023/07/25 00:51:51;;;;;;;9.63;3.17;;;13.10;99.90;;;;;;5081886;28;20061;-73
2023/07/25 00:54:17;;;;;;;13.30;2.70;;;13.10;99.90;;;;;;5076679;28;20187;-73
2023/07/25 00:56:42;;;;;;;8.00;3.42;;;13.10;99.90;;;;;;5082956;28;20115;-73
2023/07/25 00:59:08;;;;;;;9.98;2.80;;;13.10;99.90;;;;;;5080430;28;20050;-74
2023/07/25 01:01:34;;;;;;;8.48;2.33;;;13.10;99.90;;;;;;5085168;28;20036;-74
2023/07/25 01:04:00;;;;;;;8.18;2.40;;;13.10;99.90;;;;;;5083271;28;20128;-74
2023/07/25 01:06:27;;;;;;;10.70;2.60;;;13.00;99.90;;;;;;5086839;28;20803;-73
2023/07/25 01:08:55;;;;;;;10.75;2.53;;;13.10;99.90;;;;;;5079971;28;20048;-73
2023/07/25 01:11:23;;;;;;;8.50;2.35;;;13.10;99.90;;;;;;5059480;28;20403;-73
2023/07/25 01:13:50;;;;;;;10.32;2.53;;;13.10;99.90;;;;;;5063959;28;20048;-73
2023/07/25 01:16:20;;;;;;;10.88;2.60;;;13.00;99.90;;;;;;5076297;28;20567;-74
2023/07/25 01:18:47;;;;;;;8.02;2.05;;;13.00;99.90;;;;;;5082315;28;20083;-73
2023/07/25 01:21:13;;;;;;;11.10;2.83;;;13.00;99.90;;;;;;5083742;28;20056;-72
2023/07/25 01:23:40;;;;;;;10.35;2.83;;;13.00;99.90;;;;;;5085388;28;20036;-74
2023/07/25 01:26:06;;;;;;;11.48;2.90;;;13.00;99.90;;;;;;5073833;28;20052;-72
2023/07/25 01:28:32;;;;;;;8.77;2.50;;;13.00;99.90;;;;;;5080392;28;20055;-73
2023/07/25 01:30:58;;;;;;;12.27;2.80;;;13.00;99.90;;;;;;5086947;28;20039;-72
2023/07/25 01:33:24;;;;;;;9.05;2.22;;;13.10;99.90;;;;;;5085001;28;20036;-72
2023/07/25 01:35:50;;;;;;;10.20;2.80;;;13.10;99.90;;;;;;5079651;28;20051;-73
2023/07/25 01:38:15;;;;;;;10.80;2.53;;;13.10;99.90;;;;;;5090895;28;20052;-73
2023/07/25 01:40:41;;;;;;;10.32;2.47;;;13.10;99.90;;;;;;5080827;28;20032;-73
2023/07/25 01:43:08;;;;;;;7.95;2.38;;;13.10;99.90;;;;;;5083948;28;20043;-72
2023/07/25 01:45:34;;;;;;;10.05;2.50;;;13.10;99.90;;;;;;5085020;28;20668;-73
2023/07/25 01:48:00;;;;;;;12.80;2.88;;;13.10;99.90;;;;;;5073895;28;20052;-72
2023/07/25 01:50:30;;;;;;;10.57;2.25;;;13.10;99.90;;;;;;5082040;28;20035;-74
2023/07/25 01:52:55;;;;;;;5.50;2.35;;;13.10;99.90;;;;;;5083761;28;20048;-73
2023/07/25 01:55:21;;;;;;;10.07;2.10;;;13.10;99.90;;;;;;5083491;28;20105;-73
2023/07/25 01:57:47;;;;;;;10.80;2.47;;;13.20;99.90;;;;;;5078065;28;20127;-73
2023/07/25 02:00:13;;;;;;;10.13;2.60;;;13.10;99.90;;;;;;5086748;28;20075;-74
2023/07/25 02:02:39;;;;;;;7.18;2.38;;;13.20;99.90;;;;;;5085254;28;20165;-74
2023/07/25 02:05:05;;;;;;;10.63;2.50;;;13.20;99.90;;;;;;5084384;28;20040;-73
2023/07/25 02:07:31;;;;;;;13.00;3.05;;;13.20;99.90;;;;;;5082489;28;20048;-73
2023/07/25 02:09:56;;;;;;;6.82;2.60;;;13.20;99.90;;;;;;5076913;28;20044;-73
2023/07/25 02:12:22;;;;;;;11.10;2.42;;;13.10;99.90;;;;;;5080160;28;20051;-73
2023/07/25 02:14:48;;;;;;;12.50;2.75;;;13.10;99.90;;;;;;5084911;28;20044;-73
2023/07/25 02:17:14;;;;;;;11.75;2.33;;;13.10;99.90;;;;;;5085770;28;20046;-73
2023/07/25 02:19:40;;;;;;;10.00;2.75;;;13.10;99.90;;;;;;5084562;28;20040;-73
2023/07/25 02:22:06;;;;;;;12.63;2.67;;;13.10;99.90;;;;;;5081398;28;20639;-73
2023/07/25 02:24:32;;;;;;;9.52;2.45;;;13.10;99.90;;;;;;5084390;28;20055;-74
2023/07/25 02:26:57;;;;;;;11.68;2.70;;;13.20;99.90;;;;;;5084324;28;20413;-73
2023/07/25 02:29:23;;;;;;;9.95;2.40;;;13.10;99.90;;;;;;5081095;28;20040;-74
2023/07/25 02:31:49;;;;;;;8.35;2.20;;;13.20;99.90;;;;;;5081099;28;20464;-73
2023/07/25 02:34:15;;;;;;;8.30;1.98;;;13.10;99.90;;;;;;5072065;28;20047;-73
2023/07/25 02:36:42;;;;;;;9.50;2.53;;;13.20;99.90;;;;;;5078574;28;20079;-73
2023/07/25 02:39:08;;;;;;;7.65;2.30;;;13.20;99.90;;;;;;5085532;28;20075;-73
2023/07/25 02:41:34;;;;;;;8.82;2.47;;;13.20;99.90;;;;;;5084847;28;20122;-74
2023/07/25 02:44:00;;;;;;;8.75;2.20;;;13.20;99.90;;;;;;5084250;28;20458;-74
2023/07/25 02:46:26;;;;;;;8.13;2.10;;;13.20;99.90;;;;;;5082675;28;20032;-74
2023/07/25 02:48:52;;;;;;;9.05;2.40;;;13.20;99.90;;;;;;5084818;28;20043;-73
2023/07/25 02:51:18;;;;;;;12.65;2.50;;;13.20;99.90;;;;;;5084237;28;20028;-73
2023/07/25 02:53:44;;;;;;;14.40;2.80;;;13.20;99.90;;;;;;5081297;28;20120;-73
2023/07/25 02:56:10;;;;;;;10.82;2.35;;;13.20;99.90;;;;;;5082590;28;20048;-71
2023/07/25 02:58:36;;;;;;;12.18;2.55;;;13.20;99.90;;;;;;5079876;28;20139;-72
2023/07/25 03:01:02;;;;;;;9.77;2.33;;;13.20;99.90;;;;;;5069728;28;20559;-72
2023/07/25 03:03:28;;;;;;;7.43;2.55;;;13.20;99.90;;;;;;5070137;28;20044;-73
2023/07/25 03:05:54;;;;;;;8.98;2.22;;;13.20;99.90;;;;;;5079352;28;20440;-73
2023/07/25 03:08:19;;;;;;;8.52;2.33;;;13.30;99.90;;;;;;5062095;28;20142;-73
2023/07/25 03:10:45;;;;;;;9.20;2.38;;;13.30;99.90;;;;;;5080477;28;20117;-73
2023/07/25 03:13:11;;;;;;;9.05;2.40;;;13.30;99.90;;;;;;5081452;28;20077;-74
2023/07/25 03:15:37;;;;;;;7.93;2.45;;;13.30;99.90;;;;;;5080491;28;20050;-74
2023/07/25 03:18:03;;;;;;;8.57;2.25;;;13.20;99.90;;;;;;5081001;28;20106;-74
2023/07/25 03:20:29;;;;;;;11.13;2.63;;;13.20;99.90;;;;;;5081029;28;20047;-73
2023/07/25 03:22:55;;;;;;;8.35;2.00;;;13.30;99.90;;;;;;5070656;28;20036;-73
2023/07/25 03:25:20;;;;;;;10.30;2.50;;;13.30;99.90;;;;;;5081461;28;20607;-73
2023/07/25 03:27:46;;;;;;;9.27;2.22;;;13.30;99.90;;;;;;5069104;28;20058;-73
2023/07/25 03:30:12;;;;;;;9.45;2.47;;;13.30;99.90;;;;;;5070155;28;20048;-74
2023/07/25 03:32:38;;;;;;;10.80;2.70;;;13.30;99.90;;;;;;5070803;28;20479;-74
2023/07/25 03:35:06;;;;;;;11.25;2.30;;;13.30;99.90;;;;;;5084258;28;20073;-74
2023/07/25 03:37:32;;;;;;;8.98;2.10;;;13.30;99.90;;;;;;5079847;28;20459;-73
2023/07/25 03:39:57;;;;;;;11.23;2.42;;;13.30;99.90;;;;;;5070917;28;20036;-73
2023/07/25 03:42:23;;;;;;;16.02;2.35;;;13.30;99.90;;;;;;5079561;28;20048;-73
2023/07/25 03:44:49;;;;;;;11.13;2.58;;;13.20;99.90;;;;;;5077516;28;20036;-73
2023/07/25 03:47:15;;;;;;;13.63;2.60;;;13.30;99.90;;;;;;5078437;28;20040;-73
2023/07/25 03:49:40;;;;;;;10.95;2.35;;;13.30;99.90;;;;;;5080864;28;20044;-73
2023/07/25 03:52:06;;;;;;;12.35;2.35;;;13.30;99.90;;;;;;5074792;28;20047;-73
2023/07/25 03:54:32;;;;;;;7.35;2.10;;;13.20;99.90;;;;;;5080012;28;20527;-73
2023/07/25 03:56:58;;;;;;;7.78;1.90;;;13.20;99.90;;;;;;5081371;28;20186;-74
2023/07/25 03:59:23;;;;;;;11.98;2.30;;;13.20;99.90;;;;;;5081132;28;20465;-74
2023/07/25 04:01:49;;;;;;;9.48;2.13;;;13.20;99.90;;;;;;5079315;28;20568;-74
2023/07/25 04:04:15;;;;;;;8.25;2.53;;;13.20;99.90;;;;;;5079976;28;20050;-74
2023/07/25 04:06:41;;;;;;;8.30;2.28;;;13.20;99.90;;;;;;5081639;28;20408;-74
2023/07/25 04:09:07;;;;;;;8.10;1.88;;;13.10;99.90;;;;;;5078896;28;20036;-74
2023/07/25 04:11:32;;;;;;;10.93;2.00;;;13.10;99.90;;;;;;5077603;28;20822;-74
2023/07/25 04:13:58;;;;;;;5.47;1.88;;;13.10;99.90;;;;;;5082519;28;20048;-73
2023/07/25 04:16:24;;;;;;;10.30;2.60;;;13.10;99.90;;;;;;5059724;28;20032;-73
2023/07/25 04:18:50;;;;;;;7.47;2.10;;;13.10;99.90;;;;;;5084362;28;20052;-73
2023/07/25 04:21:15;;;;;;;8.63;2.28;;;12.90;99.90;;;;;;5077106;28;20510;-74
2023/07/25 04:23:42;;;;;;;10.23;1.98;;;13.10;99.90;;;;;;5087615;28;20129;-74
2023/07/25 04:26:08;;;;;;;7.07;2.00;;;13.00;99.90;;;;;;5084575;28;20047;-74
2023/07/25 04:28:34;;;;;;;10.65;2.83;;;13.00;99.90;;;;;;5074523;28;20074;-73
2023/07/25 04:30:59;;;;;;;6.53;2.03;;;13.00;99.90;;;;;;5086294;28;20067;-73
2023/07/25 04:33:25;;;;;;;8.38;2.03;;;13.00;99.90;;;;;;5085364;28;20093;-73
2023/07/25 04:35:51;;;;;;;9.25;1.88;;;13.00;99.90;;;;;;5084752;28;20101;-74
2023/07/25 04:38:17;;;;;;;7.05;2.08;;;13.00;99.90;;;;;;5085806;28;20101;-74
2023/07/25 04:40:43;;;;;;;8.02;2.20;;;13.00;99.90;;;;;;5081756;28;20970;-74
2023/07/25 04:43:09;;;;;;;7.90;2.10;;;13.00;99.90;;;;;;5071087;28;20098;-74
2023/07/25 04:45:37;;;;;;;9.60;2.05;;;13.20;99.90;;;;;;5085440;28;20047;-74
2023/07/25 04:48:03;;;;;;;9.32;2.13;;;13.30;99.90;;;;;;5086519;28;20032;-74
2023/07/25 04:50:29;;;;;;;8.20;1.88;;;13.50;99.90;;;;;;5075819;28;20083;-73
2023/07/25 04:52:54;;;;;;;8.13;1.67;;;13.70;99.90;;;;;;5075221;28;20208;-74
2023/07/25 04:55:20;;;;;;;13.60;1.98;;;13.70;99.90;;;;;;5075868;28;20044;-74
2023/07/25 04:57:46;;;;;;;10.63;2.10;;;13.80;99.90;;;;;;5075960;28;20043;-73
2023/07/25 05:00:12;;;;;;;8.88;1.60;;;13.80;99.90;;;;;;5073963;28;20828;-74
2023/07/25 05:02:38;;;;;;;7.70;1.70;;;13.80;99.90;;;;;;5068760;28;20159;-74
2023/07/25 05:05:04;;;;;;;9.13;2.00;;;13.80;99.90;;;;;;5074854;28;20040;-74
2023/07/25 05:07:29;;;;;;;14.20;2.17;;;13.90;99.90;;;;;;5055183;28;20040;-74
2023/07/25 05:09:55;;;;;;;12.48;1.70;;;14.00;99.90;;;;;;5076837;28;20102;-73
2023/07/25 05:12:21;;;;;;;10.77;2.03;;;14.20;99.90;;;;;;5075921;28;20496;-72
2023/07/25 05:14:46;;;;;;;6.88;1.45;;;14.40;99.90;;;;;;5084254;28;20055;-74
2023/07/25 05:17:12;;;;;;;7.80;1.50;;;14.70;99.90;;;;;;5084391;28;20843;-74
2023/07/25 05:19:40;;;;;;;8.95;1.75;;;14.90;99.90;;;;;;5080921;28;20342;-74
2023/07/25 05:22:06;;;;;;;9.60;1.58;;;15.10;99.90;;;;;;5080641;28;20062;-75
2023/07/25 05:24:32;;;;;;;6.05;1.30;;;15.40;99.90;;;;;;5094493;28;20044;-73
2023/07/25 05:26:58;;;;;;;7.40;1.58;;;15.60;99.90;;;;;;5086744;28;20496;-74
2023/07/25 05:29:23;;;;;;;9.75;1.45;;;15.60;99.90;;;;;;5085763;28;20047;-75
2023/07/25 05:31:49;;;;;;;10.82;1.77;;;15.50;99.90;;;;;;5080827;28;21141;-74
2023/07/25 05:34:15;;;;;;;11.40;1.83;;;15.40;99.90;;;;;;5085046;28;20174;-74
2023/07/25 05:36:40;;;;;;;10.55;1.55;;;15.20;99.90;;;;;;5075394;28;20043;-74
2023/07/25 05:39:06;;;;;;;10.77;1.92;;;15.10;99.90;;;;;;5087696;28;20070;-75
2023/07/25 05:41:32;;;;;;;7.60;1.50;;;14.90;99.90;;;;;;5084340;28;20055;-75
2023/07/25 05:43:58;;;;;;;12.60;1.92;;;14.80;99.90;;;;;;5081213;28;20048;-75
2023/07/25 05:46:23;;;;;;;7.55;1.80;;;14.80;99.90;;;;;;5081343;28;20082;-74
2023/07/25 05:48:49;;;;;;;10.50;1.80;;;14.60;99.90;;;;;;5082078;28;20044;-76
2023/07/25 05:51:15;;;;;;;10.27;1.92;;;14.60;99.90;;;;;;5085238;28;20039;-73
2023/07/25 05:53:41;;;;;;;8.00;1.63;;;14.50;99.90;;;;;;5083239;28;20043;-75
2023/07/25 05:56:06;;;;;;;10.20;1.60;;;14.50;99.90;;;;;;5078610;28;20093;-74
2023/07/25 05:58:32;;;;;;;11.38;2.03;;;14.40;99.90;;;;;;5080327;28;20489;-76
2023/07/25 06:00:58;;;;;;;6.93;1.58;;;14.40;99.90;;;;;;5080522;28;20048;-74
2023/07/25 06:03:24;;;;;;;10.35;1.60;;;14.50;99.90;;;;;;5081765;28;20079;-74
2023/07/25 06:05:49;;;;;;;10.32;1.42;;;14.60;99.90;;;;;;5085323;28;20047;-75
2023/07/25 06:08:15;;;;;;;7.57;1.27;;;14.60;99.90;;;;;;5081711;28;20069;-72
2023/07/25 06:10:41;;;;;;;11.05;1.67;;;14.60;99.90;;;;;;5075515;28;20516;-72
2023/07/25 06:13:07;;;;;;;7.55;1.50;;;14.60;99.90;;;;;;5072776;28;20408;-72
2023/07/25 06:15:36;;;;;;;10.85;1.50;;;14.60;99.90;;;;;;5073220;28;20286;-73
2023/07/25 06:18:03;;;;;;;8.30;1.30;;;14.60;99.90;;;;;;5075185;28;20080;-72
2023/07/25 06:20:31;;;;;;;7.22;1.42;;;14.60;99.90;;;;;;5072983;28;20151;-72
2023/07/25 06:23:01;;;;;;;12.48;1.70;;;14.50;99.90;;;;;;5077143;28;20040;-76
2023/07/25 06:25:26;;;;;;;5.80;1.02;;;14.60;99.90;;;;;;5070262;28;20044;-73
2023/07/25 06:27:53;;;;;;;8.50;1.40;;;14.60;99.90;;;;;;5084080;28;20047;-75
2023/07/25 06:30:19;;;;;;;6.85;1.88;;;14.60;99.90;;;;;;5072145;28;20055;-74
2023/07/25 06:32:45;;;;;;;7.68;1.48;;;14.80;99.90;;;;;;5078316;28;20047;-76
2023/07/25 06:35:11;;;;;;;9.73;1.38;;;14.90;99.90;;;;;;5075666;28;20050;-74
2023/07/25 06:37:37;;;;;;;12.15;1.55;;;14.90;99.90;;;;;;5075966;28;20722;-73
2023/07/25 06:40:04;;;;;;;6.25;1.40;;;14.90;99.90;;;;;;5076167;28;20043;-72
2023/07/25 06:42:30;;;;;;;7.03;1.13;;;14.90;99.90;;;;;;5074423;28;20079;-73
2023/07/25 06:44:56;;;;;;;8.27;1.25;;;15.10;99.90;;;;;;5074516;28;20067;-73
2023/07/25 06:47:22;;;;;;;8.35;1.33;;;15.20;99.90;;;;;;5075511;28;20036;-73
2023/07/25 06:49:48;;;;;;;7.40;1.25;;;15.30;99.90;;;;;;5071543;28;20039;-72
2023/07/25 06:52:14;;;;;;;6.93;1.20;;;15.20;99.90;;;;;;5069781;28;20131;-72
2023/07/25 06:54:41;;;;;;;6.00;0.88;;;15.20;99.90;;;;;;5072644;28;20036;-72
2023/07/25 06:57:06;;;;;;;5.85;1.10;;;15.20;99.90;;;;;;5077350;28;20083;-74
2023/07/25 06:59:32;;;;;;;6.22;0.98;;;15.10;99.90;;;;;;5080217;28;20056;-74
2023/07/25 07:01:58;;;;;;;5.03;0.93;;;15.10;99.90;;;;;;5081287;28;20097;-75
2023/07/25 07:04:24;;;;;;;5.13;1.00;;;15.10;99.90;;;;;;5078882;28;20108;-75
2023/07/25 07:06:49;;;;;;;6.43;0.90;;;15.10;99.90;;;;;;5064284;28;20051;-74
2023/07/25 07:09:15;;;;;;;4.90;1.00;;;15.10;99.90;;;;;;5082857;28;20036;-75
2023/07/25 07:11:41;;;;;;;8.45;1.10;;;15.10;99.90;;;;;;5081228;28;20036;-75
2023/07/25 07:14:07;;;;;;;5.22;1.25;;;15.10;99.90;;;;;;5076871;28;20050;-75
2023/07/25 07:16:33;;;;;;;6.90;1.00;;;15.10;99.90;;;;;;5076198;28;20844;-76
2023/07/25 07:18:59;;;;;;;6.15;1.20;;;15.20;99.90;;;;;;5085495;28;20504;-76
2023/07/25 07:21:25;;;;;;;4.60;0.90;;;15.20;99.90;;;;;;5077234;28;20051;-75
2023/07/25 07:23:50;;;;;;;6.20;0.93;;;15.20;99.90;;;;;;5078209;28;20040;-75
2023/07/25 07:26:16;;;;;;;9.27;1.20;;;15.30;99.90;;;;;;5083256;28;20556;-74
2023/07/25 07:28:42;;;;;;;6.93;1.30;;;15.40;99.90;;;;;;5080836;28;20052;-74
2023/07/25 07:31:12;;;;;;;5.32;0.93;;;15.60;99.90;;;;;;5088494;28;20082;-75
2023/07/25 07:33:38;;;;;;;6.88;1.20;;;15.70;99.90;;;;;;5075619;28;20059;-74
2023/07/25 07:36:04;;;;;;;3.40;0.80;;;15.90;99.90;;;;;;5077421;28;20557;-73
2023/07/25 07:38:30;;;;;;;5.45;0.82;;;16.10;99.90;;;;;;5096559;28;20044;-72
2023/07/25 07:40:55;;;;;;;4.72;1.00;;;16.10;99.90;;;;;;5077479;28;20558;-73
2023/07/25 07:43:21;;;;;;;8.68;1.00;;;16.30;99.90;;;;;;5071967;28;20110;-73
2023/07/25 07:45:48;;;;;;;5.47;0.77;;;16.40;99.90;;;;;;5072254;28;20054;-73
2023/07/25 07:48:14;;;;;;;5.20;1.17;;;16.50;99.90;;;;;;5078407;28;20163;-72
2023/07/25 07:50:40;;;;;;;4.05;0.77;;;16.70;99.90;;;;;;5087838;28;20561;-72
2023/07/25 07:53:06;;;;;;;5.72;0.98;;;16.80;99.90;;;;;;5089243;28;20044;-72
2023/07/25 07:55:31;;;;;;;8.32;1.55;;;16.80;99.90;;;;;;5077612;28;20044;-73
2023/07/25 07:57:57;;;;;;;6.78;0.95;;;16.90;99.90;;;;;;5085388;28;20040;-73
2023/07/25 08:00:25;;;;;;;6.43;0.98;;;17.00;99.90;;;;;;5084516;28;20424;-72
2023/07/25 08:02:51;;;;;;;8.50;1.10;;;17.10;99.90;;;;;;5085363;28;20044;-72
2023/07/25 08:05:18;;;;;;;5.20;1.05;;;17.20;99.90;;;;;;5085597;28;20382;-73
2023/07/25 08:07:43;;;;;;;7.95;1.08;;;17.20;99.90;;;;;;5082125;28;20044;-72
2023/07/25 08:10:10;;;;;;;6.30;1.05;;;17.30;99.90;;;;;;5088653;28;20067;-72
2023/07/25 08:12:35;;;;;;;5.25;0.93;;;17.40;99.90;;;;;;5086103;28;20068;-73
2023/07/25 08:15:01;;;;;;;4.32;0.98;;;17.50;99.90;;;;;;5082458;28;20083;-73
2023/07/25 08:17:27;;;;;;;8.65;1.52;;;17.70;99.90;;;;;;5083371;28;20040;-72
2023/07/25 08:19:53;;;;;;;5.60;1.10;;;17.70;99.90;;;;;;5081686;28;20043;-72
2023/07/25 08:22:19;;;;;;;9.65;1.40;;;17.80;99.90;;;;;;5086943;28;20055;-72
2023/07/25 08:24:44;;;;;;;6.25;0.93;;;17.80;99.90;;;;;;5083712;28;20078;-72
2023/07/25 08:27:10;;;;;;;4.22;1.08;;;17.80;99.90;;;;;;5084254;28;20040;-72
2023/07/25 08:29:41;;;;;;;4.65;1.00;;;17.70;99.90;;;;;;5085605;28;20385;-73
2023/07/25 08:32:09;;;;;;;5.43;1.10;;;17.70;99.90;;;;;;5083949;28;20047;-73
2023/07/25 08:34:36;;;;;;;6.10;0.90;;;17.80;99.90;;;;;;5084135;28;20093;-73
2023/07/25 08:37:02;;;;;;;6.20;0.95;;;17.80;99.90;;;;;;5088078;28;20043;-73
2023/07/25 08:39:28;;;;;;;4.30;1.02;;;17.90;99.90;;;;;;5080664;28;20461;-73
2023/07/25 08:41:55;;;;;;;8.23;1.00;;;17.90;99.90;;;;;;5079354;28;20048;-73
2023/07/25 08:44:21;;;;;;;6.90;1.05;;;18.10;99.90;;;;;;5080565;28;20119;-74
2023/07/25 08:46:51;;;;;;;7.13;0.95;;;18.20;99.90;;;;;;5084933;28;20448;-73
2023/07/25 08:49:23;;;;;;;4.25;0.82;;;18.30;99.90;;;;;;5089161;28;20036;-73
2023/07/25 08:51:52;;;;;;;4.82;1.00;;;18.40;99.90;;;;;;5088428;28;20044;-72
2023/07/25 08:54:27;;;;;;;6.35;0.93;;;18.40;99.90;;;;;;5058212;28;20094;-74
2023/07/25 08:56:53;;;;;;;6.53;1.20;;;18.40;99.90;;;;;;5078419;28;20075;-74
2023/07/25 08:59:20;;;;;;;5.90;0.90;;;18.50;99.90;;;;;;5079452;28;20056;-71
2023/07/25 09:01:46;;;;;;;5.85;0.90;;;18.50;99.90;;;;;;5083858;28;20554;-72
2023/07/25 09:04:14;;;;;;;7.93;1.63;;;18.50;99.90;;;;;;5087893;28;20127;-73
2023/07/25 09:06:40;;;;;;;4.30;1.10;;;18.50;99.90;;;;;;5087103;28;20039;-72
2023/07/25 09:09:07;;;;;;;5.85;0.90;;;18.50;99.90;;;;;;5080083;28;20052;-74
2023/07/25 09:11:36;;;;;;;5.93;0.90;;;18.50;99.90;;;;;;5087377;28;20407;-73
2023/07/25 09:14:02;;;;;;;10.57;2.33;;;18.40;99.90;;;;;;5080664;28;20460;-74
2023/07/25 09:16:27;;;;;;;5.90;1.23;;;18.50;99.90;;;;;;5078735;28;20036;-72
2023/07/25 09:18:53;;;;;;;5.22;0.90;;;18.60;99.90;;;;;;5084582;28;20097;-73
2023/07/25 09:21:19;;;;;;;6.45;1.23;;;18.50;99.90;;;;;;5087128;28;20050;-74
2023/07/25 09:23:55;;;;;;;12.48;1.10;;;18.40;99.90;;;;;;5080361;28;20071;-74
2023/07/25 09:26:22;;;;;;;11.18;1.23;;;18.40;99.90;;;;;;5088100;28;20048;-73
2023/07/25 09:28:58;;;;;;;4.65;1.20;;;18.40;99.90;;;;;;5082761;28;20591;-72
2023/07/25 09:31:25;;;;;;;4.13;0.90;;;18.40;99.90;;;;;;5078876;28;20572;-73
2023/07/25 09:33:53;;;;;;;7.00;1.38;;;18.50;99.90;;;;;;5083821;28;20148;-74
2023/07/25 09:36:19;;;;;;;6.25;1.45;;;18.60;99.90;;;;;;5079156;28;20056;-75
2023/07/25 09:38:52;;;;;;;4.10;0.93;;;18.60;99.90;;;;;;5079710;28;20150;-73
2023/07/25 09:41:19;;;;;;;5.72;1.30;;;18.50;99.90;;;;;;5080021;28;20058;-74
2023/07/25 09:43:45;;;;;;;7.70;1.40;;;18.40;99.90;;;;;;5079640;28;20044;-73
2023/07/25 09:46:11;;;;;;;6.32;1.10;;;18.30;99.90;;;;;;5079580;28;20040;-73
2023/07/25 09:48:47;;;;;;;6.07;1.42;;;18.20;99.90;;;;;;5081761;28;20044;-73
2023/07/25 09:51:14;;;;;;;10.70;1.80;;;18.20;99.90;;;;;;5078305;28;20072;-74
2023/07/25 09:53:44;;;;;;;7.22;1.10;;;18.20;99.90;;;;;;5078857;28;20484;-73
2023/07/25 09:56:10;;;;;;;6.83;1.43;;;18.20;99.90;;;;;;5082450;28;20077;-73
2023/07/25 09:58:38;;;;;;;9.27;1.27;;;18.10;99.90;;;;;;5080127;28;20032;-74
2023/07/25 10:01:04;;;;;;;12.00;1.35;;;18.10;99.90;;;;;;5080837;28;20037;-73
2023/07/25 10:03:30;;;;;;;4.53;0.90;;;18.10;99.90;;;;;;5077010;28;20046;-73
2023/07/25 10:05:59;;;;;;;10.10;1.23;;;18.10;99.90;;;;;;5079509;28;20044;-73
2023/07/25 10:08:26;;;;;;;6.90;1.35;;;18.20;99.90;;;;;;5080222;28;20056;-73
2023/07/25 10:10:55;;;;;;;8.05;1.08;;;18.20;99.90;;;;;;5078501;28;20044;-72
2023/07/25 10:13:21;;;;;;;7.38;1.42;;;18.20;99.90;;;;;;5078687;28;20040;-73
2023/07/25 10:15:49;;;;;;;3.67;1.00;;;18.10;99.90;;;;;;5077790;28;20075;-73
2023/07/25 10:18:27;;;;;;;12.35;1.60;;;18.10;99.90;;;;;;5079545;28;20137;-73
2023/07/25 10:20:54;;;;;;;8.63;1.00;;;18.00;99.90;;;;;;5077419;28;20036;-74
2023/07/25 10:23:35;;;;;;;7.30;1.02;;;18.10;99.90;;;;;;5081928;28;20036;-74
2023/07/25 10:26:14;;;;;;;6.22;1.33;;;18.10;99.90;;;;;;5074769;28;20427;-72
2023/07/25 10:28:40;;;;;;;6.57;1.27;;;18.20;99.90;;;;;;5076676;28;20056;-73
2023/07/25 10:31:22;;;;;;;6.75;1.20;;;18.30;99.90;;;;;;5071786;28;20048;-73
2023/07/25 10:33:57;;;;;;;7.60;1.75;;;18.40;99.90;;;;;;5079297;28;20143;-74
2023/07/25 10:36:24;;;;;;;3.67;0.70;;;18.40;99.90;;;;;;5082736;28;20463;-74
2023/07/25 10:38:49;;;;;;;6.85;1.50;;;18.30;99.90;;;;;;5071123;28;20044;-73
2023/07/25 10:41:16;;;;;;;7.05;1.17;;;18.30;99.90;;;;;;5075971;28;20101;-73
2023/07/25 10:43:45;;;;;;;5.15;1.00;;;18.40;99.90;;;;;;5080328;28;20047;-74
2023/07/25 10:46:19;;;;;;;4.75;0.93;;;18.30;99.90;;;;;;5079257;28;20040;-71
2023/07/25 10:48:50;;;;;;;5.97;1.23;;;18.30;99.90;;;;;;5078210;28;20035;-73
2023/07/25 10:51:17;;;;;;;7.82;1.00;;;18.30;99.90;;;;;;5076486;28;20044;-73
2023/07/25 10:54:09;;;;;;;6.38;1.30;;;18.30;99.90;;;;;;5080883;28;20085;-74
2023/07/25 10:56:36;;;;;;;5.10;1.13;;;18.20;99.90;;;;;;5076842;28;20480;-73
2023/07/25 10:59:12;;;;;;;5.22;1.10;;;18.30;99.90;;;;;;5080147;28;20044;-74
2023/07/25 11:01:44;;;;;;;5.43;1.27;;;18.30;99.90;;;;;;5067063;28;20130;-74
2023/07/25 11:04:26;;;;;;;6.18;1.10;;;18.30;99.90;;;;;;5081758;28;20059;-73
2023/07/25 11:06:56;;;;;;;5.97;0.90;;;18.30;99.90;;;;;;5082336;28;20048;-74
2023/07/25 11:09:23;;;;;;;6.18;1.35;;;18.40;99.90;;;;;;5080574;28;20048;-72
2023/07/25 11:11:52;;;;;;;2.60;0.70;;;18.40;99.90;;;;;;5081641;28;20077;-72
2023/07/25 11:14:20;;;;;;;4.88;0.80;;;18.40;99.90;;;;;;5083125;28;20040;-73
2023/07/25 11:16:48;;;;;;;6.93;1.00;;;18.40;99.90;;;;;;5080561;28;20059;-73
2023/07/25 11:19:14;;;;;;;8.10;1.00;;;18.40;99.90;;;;;;5081427;28;20109;-73
2023/07/25 11:21:45;;;;;;;5.68;0.90;;;18.40;99.90;;;;;;5072296;28;20451;-73
2023/07/25 11:24:14;;;;;;;3.67;0.90;;;18.40;99.90;;;;;;5075170;28;20055;-73
2023/07/25 11:26:42;;;;;;;12.35;1.00;;;18.40;99.90;;;;;;5081706;28;20067;-73
2023/07/25 11:29:10;;;;;;;5.18;0.82;;;18.40;99.90;;;;;;5081300;28;20150;-73
2023/07/25 11:31:41;;;;;;;6.05;1.23;;;18.40;99.90;;;;;;5082577;28;20036;-73
2023/07/25 11:34:14;;;;;;;;;;;18.50;99.90;;;;;;5085092;28;20059;-73
2023/07/25 11:36:40;;;;;;;4.75;0.80;;;18.50;99.90;;;;;;5083430;28;19928;-73
2023/07/25 11:39:10;;;;;;;7.95;1.02;;;18.50;99.90;;;;;;5084795;28;20101;-73
2023/07/25 11:41:37;;;;;;;7.78;1.15;;;18.50;99.90;;;;;;5084052;28;20173;-73
2023/07/25 11:44:11;;;;;;;4.03;0.90;;;18.50;99.90;;;;;;5086996;28;20040;-73
2023/07/25 11:46:39;;;;;;;3.90;0.82;;;18.40;99.90;;;;;;5085623;28;20044;-74
2023/07/25 11:49:06;;;;;;;5.03;1.00;;;18.40;99.90;;;;;;5070393;28;20048;-73
2023/07/25 11:51:33;;;;;;;3.60;0.75;;;18.40;99.90;;;;;;5083481;28;20040;-73
2023/07/25 11:53:59;;;;;;;6.05;0.90;;;18.40;99.90;;;;;;5083139;28;20047;-72
2023/07/25 11:56:25;;;;;;;6.22;1.00;;;18.30;99.90;;;;;;5083357;28;20040;-73
2023/07/25 11:58:51;;;;;;;4.85;1.05;;;18.30;99.90;;;;;;5055169;28;20039;-72
2023/07/25 12:01:18;;;;;;;3.85;0.80;;;18.30;99.90;;;;;;5084428;28;20044;-74
2023/07/25 12:03:49;;;;;;;6.53;0.82;;;18.30;99.90;;;;;;5083939;28;20115;-74
2023/07/25 12:06:15;;;;;;;4.32;0.82;;;18.30;99.90;;;;;;5084020;28;20040;-73
2023/07/25 12:08:43;;;;;;;5.63;1.00;;;18.30;99.90;;;;;;5085084;28;20126;-74
2023/07/25 12:11:14;;;;;;;2.72;0.85;;;18.40;99.90;;;;;;5086290;28;20047;-73
2023/07/25 12:13:45;;;;;;;;;;;18.50;99.90;;;;;;5085137;28;20489;-73
2023/07/25 12:16:27;;;;;;;7.43;1.57;;;18.60;99.90;;;;;;5074665;28;19924;-73
2023/07/25 12:18:55;;;;;;;3.15;1.00;;;18.70;99.90;;;;;;5077285;28;20298;-74
2023/07/25 12:21:23;;;;;;;12.63;2.65;;;18.80;99.90;;;;;;5086068;28;20048;-74
2023/07/25 12:23:52;;;;;;;6.90;0.90;;;18.80;99.90;;;;;;5085398;28;20048;-74
2023/07/25 12:26:21;;;;;;;8.68;1.10;;;18.70;99.90;;;;;;5082079;28;20123;-74
2023/07/25 12:28:48;;;;;;;6.00;1.27;;;18.70;99.90;;;;;;5086923;28;20040;-74
2023/07/25 12:31:14;;;;;;;3.72;1.08;;;18.70;99.90;;;;;;5074799;28;20382;-73
2023/07/25 12:33:43;;;;;;;7.47;0.93;;;18.60;99.90;;;;;;5085545;28;20105;-73
2023/07/25 12:36:09;;;;;;;8.45;1.20;;;18.60;99.90;;;;;;5086542;28;20048;-74
2023/07/25 12:38:35;;;;;;;8.93;1.65;;;18.60;99.90;;;;;;5076935;28;20049;-73
2023/07/25 12:41:01;;;;;;;8.50;1.30;;;18.70;99.90;;;;;;5079450;28;20052;-74
2023/07/25 12:43:27;;;;;;;7.95;1.50;;;18.70;99.90;;;;;;5074462;28;20048;-72